sensor_id;sensor_type;location;lat;lon;timestamp;P1;durP1;ratioP1;P2;durP2;ratioP2
32633;SDS011;19043;51.012;5.648;2022-07-06T00:02:15;4.20;;;2.40;;
32633;SDS011;19043;51.012;5.648;2022-07-06T00:04:40;5.55;;;2.85;;
32633;SDS011;19043;51.012;5.648;2022-07-06T00:07:06;3.95;;;2.58;;
32633;SDS011;19043;51.012;5.648;2022-07-06T00:09:32;7.93;;;2.33;;
32633;SDS011;19043;51.012;5.648;2022-07-06T00:11:57;6.90;;;2.97;;
32633;SDS011;19043;51.012;5.648;2022-07-06T00:14:23;6.53;;;2.55;;
32633;SDS011;19043;51.012;5.648;2022-07-06T00:16:48;5.93;;;2.92;;
32633;SDS011;19043;51.012;5.648;2022-07-06T00:19:14;4.50;;;2.72;;
32633;SDS011;19043;51.012;5.648;2022-07-06T00:21:39;6.03;;;3.25;;
32633;SDS011;19043;51.012;5.648;2022-07-06T00:24:04;5.95;;;3.40;;
32633;SDS011;19043;51.012;5.648;2022-07-06T00:26:30;9.52;;;3.65;;
32633;SDS011;19043;51.012;5.648;2022-07-06T00:28:55;8.85;;;3.47;;
32633;SDS011;19043;51.012;5.648;2022-07-06T00:31:21;5.35;;;3.47;;
32633;SDS011;19043;51.012;5.648;2022-07-06T00:33:46;6.80;;;2.80;;
32633;SDS011;19043;51.012;5.648;2022-07-06T00:36:11;6.25;;;3.30;;
32633;SDS011;19043;51.012;5.648;2022-07-06T00:38:37;6.82;;;3.20;;
32633;SDS011;19043;51.012;5.648;2022-07-06T00:41:02;4.82;;;2.97;;
32633;SDS011;19043;51.012;5.648;2022-07-06T00:43:28;6.57;;;3.17;;
32633;SDS011;19043;51.012;5.648;2022-07-06T00:45:53;6.05;;;2.70;;
32633;SDS011;19043;51.012;5.648;2022-07-06T00:48:19;5.22;;;2.70;;
32633;SDS011;19043;51.012;5.648;2022-07-06T00:50:44;5.60;;;3.08;;
32633;SDS011;19043;51.012;5.648;2022-07-06T00:53:10;6.22;;;3.20;;
32633;SDS011;19043;51.012;5.648;2022-07-06T00:55:38;7.90;;;4.10;;
32633;SDS011;19043;51.012;5.648;2022-07-06T00:58:05;6.82;;;3.90;;
32633;SDS011;19043;51.012;5.648;2022-07-06T01:00:31;6.57;;;4.07;;
32633;SDS011;19043;51.012;5.648;2022-07-06T01:02:57;6.47;;;3.30;;
32633;SDS011;19043;51.012;5.648;2022-07-06T01:05:22;12.00;;;3.95;;
32633;SDS011;19043;51.012;5.648;2022-07-06T01:07:48;8.05;;;4.57;;
32633;SDS011;19043;51.012;5.648;2022-07-06T01:10:15;6.43;;;3.80;;
32633;SDS011;19043;51.012;5.648;2022-07-06T01:12:43;8.30;;;4.25;;
32633;SDS011;19043;51.012;5.648;2022-07-06T01:15:10;5.50;;;3.40;;
32633;SDS011;19043;51.012;5.648;2022-07-06T01:17:39;6.40;;;4.13;;
32633;SDS011;19043;51.012;5.648;2022-07-06T01:20:11;6.00;;;3.55;;
32633;SDS011;19043;51.012;5.648;2022-07-06T01:22:38;7.30;;;3.47;;
32633;SDS011;19043;51.012;5.648;2022-07-06T01:25:04;8.02;;;4.60;;
32633;SDS011;19043;51.012;5.648;2022-07-06T01:27:31;7.55;;;3.58;;
32633;SDS011;19043;51.012;5.648;2022-07-06T01:29:57;10.82;;;4.65;;
32633;SDS011;19043;51.012;5.648;2022-07-06T01:32:22;5.43;;;3.35;;
32633;SDS011;19043;51.012;5.648;2022-07-06T01:34:47;8.68;;;4.50;;
32633;SDS011;19043;51.012;5.648;2022-07-06T01:37:13;8.10;;;4.25;;
32633;SDS011;19043;51.012;5.648;2022-07-06T01:39:38;7.75;;;3.90;;
32633;SDS011;19043;51.012;5.648;2022-07-06T01:42:03;6.00;;;3.78;;
32633;SDS011;19043;51.012;5.648;2022-07-06T01:44:30;10.80;;;5.05;;
32633;SDS011;19043;51.012;5.648;2022-07-06T01:46:55;8.88;;;4.50;;
32633;SDS011;19043;51.012;5.648;2022-07-06T01:49:21;9.68;;;5.10;;
32633;SDS011;19043;51.012;5.648;2022-07-06T01:51:46;7.88;;;4.95;;
32633;SDS011;19043;51.012;5.648;2022-07-06T01:54:13;7.00;;;4.65;;
32633;SDS011;19043;51.012;5.648;2022-07-06T01:56:38;6.22;;;3.72;;
32633;SDS011;19043;51.012;5.648;2022-07-06T01:59:04;7.95;;;5.10;;
32633;SDS011;19043;51.012;5.648;2022-07-06T02:01:29;8.57;;;5.13;;
32633;SDS011;19043;51.012;5.648;2022-07-06T02:03:55;8.82;;;4.93;;
32633;SDS011;19043;51.012;5.648;2022-07-06T02:06:20;8.48;;;4.32;;
32633;SDS011;19043;51.012;5.648;2022-07-06T02:08:45;7.38;;;5.00;;
32633;SDS011;19043;51.012;5.648;2022-07-06T02:11:11;10.65;;;5.00;;
32633;SDS011;19043;51.012;5.648;2022-07-06T02:13:36;6.43;;;4.53;;
32633;SDS011;19043;51.012;5.648;2022-07-06T02:16:02;6.90;;;4.88;;
32633;SDS011;19043;51.012;5.648;2022-07-06T02:18:28;10.82;;;5.65;;
32633;SDS011;19043;51.012;5.648;2022-07-06T02:20:53;9.20;;;4.82;;
32633;SDS011;19043;51.012;5.648;2022-07-06T02:23:18;8.10;;;5.32;;
32633;SDS011;19043;51.012;5.648;2022-07-06T02:25:44;8.32;;;4.65;;
32633;SDS011;19043;51.012;5.648;2022-07-06T02:28:09;8.32;;;5.22;;
32633;SDS011;19043;51.012;5.648;2022-07-06T02:30:35;9.07;;;4.95;;
32633;SDS011;19043;51.012;5.648;2022-07-06T02:33:00;10.52;;;5.07;;
32633;SDS011;19043;51.012;5.648;2022-07-06T02:35:26;7.00;;;5.07;;
32633;SDS011;19043;51.012;5.648;2022-07-06T02:37:51;6.30;;;4.53;;
32633;SDS011;19043;51.012;5.648;2022-07-06T02:40:16;11.55;;;6.00;;
32633;SDS011;19043;51.012;5.648;2022-07-06T02:42:42;9.98;;;6.70;;
32633;SDS011;19043;51.012;5.648;2022-07-06T02:45:07;12.40;;;6.60;;
32633;SDS011;19043;51.012;5.648;2022-07-06T02:47:33;12.68;;;6.60;;
32633;SDS011;19043;51.012;5.648;2022-07-06T02:49:59;9.07;;;6.30;;
32633;SDS011;19043;51.012;5.648;2022-07-06T02:52:24;14.50;;;6.32;;
32633;SDS011;19043;51.012;5.648;2022-07-06T02:54:50;9.25;;;5.75;;
32633;SDS011;19043;51.012;5.648;2022-07-06T02:57:16;11.07;;;5.88;;
32633;SDS011;19043;51.012;5.648;2022-07-06T02:59:41;20.20;;;6.82;;
32633;SDS011;19043;51.012;5.648;2022-07-06T03:02:07;8.85;;;5.82;;
32633;SDS011;19043;51.012;5.648;2022-07-06T03:04:32;13.13;;;7.20;;
32633;SDS011;19043;51.012;5.648;2022-07-06T03:06:58;11.35;;;7.07;;
32633;SDS011;19043;51.012;5.648;2022-07-06T03:09:24;9.57;;;5.97;;
32633;SDS011;19043;51.012;5.648;2022-07-06T03:11:49;9.40;;;7.03;;
32633;SDS011;19043;51.012;5.648;2022-07-06T03:14:14;12.98;;;7.78;;
32633;SDS011;19043;51.012;5.648;2022-07-06T03:16:40;9.70;;;6.90;;
32633;SDS011;19043;51.012;5.648;2022-07-06T03:19:05;17.73;;;9.43;;
32633;SDS011;19043;51.012;5.648;2022-07-06T03:21:30;14.68;;;8.57;;
32633;SDS011;19043;51.012;5.648;2022-07-06T03:23:56;23.33;;;10.40;;
32633;SDS011;19043;51.012;5.648;2022-07-06T03:26:21;19.27;;;8.25;;
32633;SDS011;19043;51.012;5.648;2022-07-06T03:28:47;14.30;;;9.35;;
32633;SDS011;19043;51.012;5.648;2022-07-06T03:31:12;21.95;;;8.98;;
32633;SDS011;19043;51.012;5.648;2022-07-06T03:33:37;16.08;;;7.85;;
32633;SDS011;19043;51.012;5.648;2022-07-06T03:36:03;11.70;;;6.97;;
32633;SDS011;19043;51.012;5.648;2022-07-06T03:38:29;13.18;;;8.88;;
32633;SDS011;19043;51.012;5.648;2022-07-06T03:40:55;12.48;;;7.65;;
32633;SDS011;19043;51.012;5.648;2022-07-06T03:43:20;20.55;;;10.10;;
32633;SDS011;19043;51.012;5.648;2022-07-06T03:45:46;11.98;;;8.30;;
32633;SDS011;19043;51.012;5.648;2022-07-06T03:48:11;14.95;;;7.65;;
32633;SDS011;19043;51.012;5.648;2022-07-06T03:50:36;17.10;;;9.70;;
32633;SDS011;19043;51.012;5.648;2022-07-06T03:53:02;13.65;;;8.48;;
32633;SDS011;19043;51.012;5.648;2022-07-06T03:55:27;16.13;;;8.68;;
32633;SDS011;19043;51.012;5.648;2022-07-06T03:57:52;21.38;;;8.30;;
32633;SDS011;19043;51.012;5.648;2022-07-06T04:00:18;28.58;;;11.43;;
32633;SDS011;19043;51.012;5.648;2022-07-06T04:02:43;27.05;;;12.13;;
32633;SDS011;19043;51.012;5.648;2022-07-06T04:05:09;17.77;;;9.30;;
32633;SDS011;19043;51.012;5.648;2022-07-06T04:07:34;16.58;;;9.93;;
32633;SDS011;19043;51.012;5.648;2022-07-06T04:09:59;20.38;;;9.40;;
32633;SDS011;19043;51.012;5.648;2022-07-06T04:12:25;20.65;;;10.50;;
32633;SDS011;19043;51.012;5.648;2022-07-06T04:14:50;15.02;;;9.48;;
32633;SDS011;19043;51.012;5.648;2022-07-06T04:17:16;19.85;;;10.35;;
32633;SDS011;19043;51.012;5.648;2022-07-06T04:20:00;23.50;;;11.17;;
32633;SDS011;19043;51.012;5.648;2022-07-06T04:22:25;22.00;;;10.00;;
32633;SDS011;19043;51.012;5.648;2022-07-06T04:24:50;16.00;;;9.43;;
32633;SDS011;19043;51.012;5.648;2022-07-06T04:27:16;15.82;;;9.13;;
32633;SDS011;19043;51.012;5.648;2022-07-06T04:29:41;16.10;;;9.30;;
32633;SDS011;19043;51.012;5.648;2022-07-06T04:32:06;16.83;;;9.38;;
32633;SDS011;19043;51.012;5.648;2022-07-06T04:34:32;19.50;;;8.70;;
32633;SDS011;19043;51.012;5.648;2022-07-06T04:36:57;25.17;;;8.40;;
32633;SDS011;19043;51.012;5.648;2022-07-06T04:39:23;19.40;;;9.60;;
32633;SDS011;19043;51.012;5.648;2022-07-06T04:41:48;13.07;;;8.18;;
32633;SDS011;19043;51.012;5.648;2022-07-06T04:44:13;14.63;;;8.55;;
32633;SDS011;19043;51.012;5.648;2022-07-06T04:46:39;19.40;;;8.35;;
32633;SDS011;19043;51.012;5.648;2022-07-06T04:49:04;18.23;;;8.25;;
32633;SDS011;19043;51.012;5.648;2022-07-06T04:51:30;15.00;;;8.63;;
32633;SDS011;19043;51.012;5.648;2022-07-06T04:53:55;15.43;;;7.45;;
32633;SDS011;19043;51.012;5.648;2022-07-06T04:56:20;17.33;;;7.82;;
32633;SDS011;19043;51.012;5.648;2022-07-06T04:58:45;12.15;;;6.80;;
32633;SDS011;19043;51.012;5.648;2022-07-06T05:01:11;18.13;;;8.00;;
32633;SDS011;19043;51.012;5.648;2022-07-06T05:03:36;10.27;;;6.45;;
32633;SDS011;19043;51.012;5.648;2022-07-06T05:06:05;10.25;;;6.60;;
32633;SDS011;19043;51.012;5.648;2022-07-06T05:08:31;12.48;;;6.60;;
32633;SDS011;19043;51.012;5.648;2022-07-06T05:10:56;24.70;;;6.20;;
32633;SDS011;19043;51.012;5.648;2022-07-06T05:13:22;11.63;;;5.57;;
32633;SDS011;19043;51.012;5.648;2022-07-06T05:15:47;9.90;;;6.07;;
32633;SDS011;19043;51.012;5.648;2022-07-06T05:18:13;14.30;;;5.03;;
32633;SDS011;19043;51.012;5.648;2022-07-06T05:20:38;7.63;;;4.78;;
32633;SDS011;19043;51.012;5.648;2022-07-06T05:23:03;8.15;;;4.38;;
32633;SDS011;19043;51.012;5.648;2022-07-06T05:25:29;8.32;;;4.22;;
32633;SDS011;19043;51.012;5.648;2022-07-06T05:27:55;7.38;;;3.67;;
32633;SDS011;19043;51.012;5.648;2022-07-06T05:30:20;5.95;;;3.20;;
32633;SDS011;19043;51.012;5.648;2022-07-06T05:32:46;6.82;;;3.65;;
32633;SDS011;19043;51.012;5.648;2022-07-06T05:35:11;6.93;;;3.35;;
32633;SDS011;19043;51.012;5.648;2022-07-06T05:37:36;7.13;;;2.95;;
32633;SDS011;19043;51.012;5.648;2022-07-06T05:40:02;5.97;;;3.53;;
32633;SDS011;19043;51.012;5.648;2022-07-06T05:42:28;6.80;;;3.72;;
32633;SDS011;19043;51.012;5.648;2022-07-06T05:44:56;5.82;;;3.13;;
32633;SDS011;19043;51.012;5.648;2022-07-06T05:47:22;5.00;;;2.58;;
32633;SDS011;19043;51.012;5.648;2022-07-06T05:50:06;6.22;;;3.03;;
32633;SDS011;19043;51.012;5.648;2022-07-06T05:52:41;9.55;;;3.25;;
32633;SDS011;19043;51.012;5.648;2022-07-06T05:55:08;4.75;;;2.90;;
32633;SDS011;19043;51.012;5.648;2022-07-06T05:57:35;4.88;;;2.35;;
32633;SDS011;19043;51.012;5.648;2022-07-06T06:00:01;8.07;;;2.75;;
32633;SDS011;19043;51.012;5.648;2022-07-06T06:02:26;9.43;;;2.92;;
32633;SDS011;19043;51.012;5.648;2022-07-06T06:04:52;6.18;;;2.47;;
32633;SDS011;19043;51.012;5.648;2022-07-06T06:07:18;8.25;;;2.38;;
32633;SDS011;19043;51.012;5.648;2022-07-06T06:09:43;9.27;;;2.65;;
32633;SDS011;19043;51.012;5.648;2022-07-06T06:12:09;6.35;;;2.45;;
32633;SDS011;19043;51.012;5.648;2022-07-06T06:14:34;6.95;;;2.22;;
32633;SDS011;19043;51.012;5.648;2022-07-06T06:17:00;5.95;;;2.05;;
32633;SDS011;19043;51.012;5.648;2022-07-06T06:19:25;4.35;;;1.30;;
32633;SDS011;19043;51.012;5.648;2022-07-06T06:21:50;10.45;;;1.73;;
32633;SDS011;19043;51.012;5.648;2022-07-06T06:24:16;4.47;;;1.88;;
32633;SDS011;19043;51.012;5.648;2022-07-06T06:26:42;4.28;;;1.60;;
32633;SDS011;19043;51.012;5.648;2022-07-06T06:29:08;3.65;;;1.40;;
32633;SDS011;19043;51.012;5.648;2022-07-06T06:31:33;3.58;;;1.30;;
32633;SDS011;19043;51.012;5.648;2022-07-06T06:33:58;3.63;;;1.38;;
32633;SDS011;19043;51.012;5.648;2022-07-06T06:36:24;4.25;;;1.33;;
32633;SDS011;19043;51.012;5.648;2022-07-06T06:38:49;2.22;;;0.93;;
32633;SDS011;19043;51.012;5.648;2022-07-06T06:41:14;2.40;;;0.98;;
32633;SDS011;19043;51.012;5.648;2022-07-06T06:43:40;3.08;;;1.45;;
32633;SDS011;19043;51.012;5.648;2022-07-06T06:46:05;10.48;;;1.45;;
32633;SDS011;19043;51.012;5.648;2022-07-06T06:48:31;4.13;;;1.02;;
32633;SDS011;19043;51.012;5.648;2022-07-06T06:50:56;3.67;;;1.33;;
32633;SDS011;19043;51.012;5.648;2022-07-06T06:53:22;4.35;;;1.58;;
32633;SDS011;19043;51.012;5.648;2022-07-06T06:55:47;2.55;;;1.10;;
32633;SDS011;19043;51.012;5.648;2022-07-06T06:58:12;2.42;;;1.02;;
32633;SDS011;19043;51.012;5.648;2022-07-06T07:00:38;3.65;;;1.10;;
32633;SDS011;19043;51.012;5.648;2022-07-06T07:03:03;3.42;;;1.00;;
32633;SDS011;19043;51.012;5.648;2022-07-06T07:05:28;3.53;;;0.80;;
32633;SDS011;19043;51.012;5.648;2022-07-06T07:07:54;4.47;;;0.93;;
32633;SDS011;19043;51.012;5.648;2022-07-06T07:10:22;4.30;;;0.82;;
32633;SDS011;19043;51.012;5.648;2022-07-06T07:12:47;3.22;;;0.90;;
32633;SDS011;19043;51.012;5.648;2022-07-06T07:15:13;2.45;;;0.90;;
32633;SDS011;19043;51.012;5.648;2022-07-06T07:17:39;1.90;;;0.57;;
32633;SDS011;19043;51.012;5.648;2022-07-06T07:20:05;3.60;;;0.73;;
32633;SDS011;19043;51.012;5.648;2022-07-06T07:22:31;3.47;;;0.82;;
32633;SDS011;19043;51.012;5.648;2022-07-06T07:24:56;2.65;;;0.80;;
32633;SDS011;19043;51.012;5.648;2022-07-06T07:27:24;2.00;;;0.65;;
32633;SDS011;19043;51.012;5.648;2022-07-06T07:29:49;3.00;;;1.20;;
32633;SDS011;19043;51.012;5.648;2022-07-06T07:32:15;2.15;;;1.02;;
32633;SDS011;19043;51.012;5.648;2022-07-06T07:34:40;2.25;;;0.43;;
32633;SDS011;19043;51.012;5.648;2022-07-06T07:37:05;2.85;;;0.80;;
32633;SDS011;19043;51.012;5.648;2022-07-06T07:39:31;1.60;;;0.70;;
32633;SDS011;19043;51.012;5.648;2022-07-06T07:41:57;1.58;;;0.57;;
32633;SDS011;19043;51.012;5.648;2022-07-06T07:44:22;2.75;;;0.70;;
32633;SDS011;19043;51.012;5.648;2022-07-06T07:46:47;2.55;;;0.70;;
32633;SDS011;19043;51.012;5.648;2022-07-06T07:49:13;2.13;;;0.90;;
32633;SDS011;19043;51.012;5.648;2022-07-06T07:51:39;2.92;;;0.93;;
32633;SDS011;19043;51.012;5.648;2022-07-06T07:54:04;2.75;;;0.98;;
32633;SDS011;19043;51.012;5.648;2022-07-06T07:56:30;2.38;;;0.93;;
32633;SDS011;19043;51.012;5.648;2022-07-06T07:58:56;3.90;;;0.90;;
32633;SDS011;19043;51.012;5.648;2022-07-06T08:01:21;3.35;;;1.05;;
32633;SDS011;19043;51.012;5.648;2022-07-06T08:03:47;2.42;;;0.90;;
32633;SDS011;19043;51.012;5.648;2022-07-06T08:06:13;3.78;;;0.90;;
32633;SDS011;19043;51.012;5.648;2022-07-06T08:08:38;1.35;;;0.60;;
32633;SDS011;19043;51.012;5.648;2022-07-06T08:11:03;3.70;;;1.00;;
32633;SDS011;19043;51.012;5.648;2022-07-06T08:13:29;2.58;;;1.02;;
32633;SDS011;19043;51.012;5.648;2022-07-06T08:15:54;2.08;;;0.93;;
32633;SDS011;19043;51.012;5.648;2022-07-06T08:18:19;3.95;;;0.82;;
32633;SDS011;19043;51.012;5.648;2022-07-06T08:20:45;3.28;;;0.93;;
32633;SDS011;19043;51.012;5.648;2022-07-06T08:23:10;2.97;;;0.80;;
32633;SDS011;19043;51.012;5.648;2022-07-06T08:25:35;1.63;;;0.60;;
32633;SDS011;19043;51.012;5.648;2022-07-06T08:28:01;2.78;;;0.82;;
32633;SDS011;19043;51.012;5.648;2022-07-06T08:30:26;3.17;;;0.98;;
32633;SDS011;19043;51.012;5.648;2022-07-06T08:32:51;2.53;;;1.05;;
32633;SDS011;19043;51.012;5.648;2022-07-06T08:35:17;2.03;;;0.73;;
32633;SDS011;19043;51.012;5.648;2022-07-06T08:37:42;3.47;;;1.20;;
32633;SDS011;19043;51.012;5.648;2022-07-06T08:40:08;2.03;;;0.82;;
32633;SDS011;19043;51.012;5.648;2022-07-06T08:42:34;2.97;;;0.75;;
32633;SDS011;19043;51.012;5.648;2022-07-06T08:45:01;2.88;;;0.88;;
32633;SDS011;19043;51.012;5.648;2022-07-06T08:47:27;3.35;;;0.80;;
32633;SDS011;19043;51.012;5.648;2022-07-06T08:49:54;2.72;;;0.80;;
32633;SDS011;19043;51.012;5.648;2022-07-06T08:52:19;1.35;;;0.60;;
32633;SDS011;19043;51.012;5.648;2022-07-06T08:54:46;2.83;;;0.98;;
32633;SDS011;19043;51.012;5.648;2022-07-06T08:57:11;3.55;;;0.95;;
32633;SDS011;19043;51.012;5.648;2022-07-06T08:59:38;3.05;;;1.20;;
32633;SDS011;19043;51.012;5.648;2022-07-06T09:02:04;2.63;;;0.60;;
32633;SDS011;19043;51.012;5.648;2022-07-06T09:04:30;3.05;;;0.90;;
32633;SDS011;19043;51.012;5.648;2022-07-06T09:06:57;2.58;;;0.85;;
32633;SDS011;19043;51.012;5.648;2022-07-06T09:09:23;2.22;;;0.63;;
32633;SDS011;19043;51.012;5.648;2022-07-06T09:11:49;1.70;;;0.68;;
32633;SDS011;19043;51.012;5.648;2022-07-06T09:14:15;2.75;;;1.00;;
32633;SDS011;19043;51.012;5.648;2022-07-06T09:16:41;3.03;;;0.65;;
32633;SDS011;19043;51.012;5.648;2022-07-06T09:19:12;1.30;;;0.60;;
32633;SDS011;19043;51.012;5.648;2022-07-06T09:21:38;2.20;;;0.70;;
32633;SDS011;19043;51.012;5.648;2022-07-06T09:24:06;1.83;;;0.80;;
32633;SDS011;19043;51.012;5.648;2022-07-06T09:26:32;2.47;;;0.80;;
32633;SDS011;19043;51.012;5.648;2022-07-06T09:28:59;1.85;;;0.80;;
32633;SDS011;19043;51.012;5.648;2022-07-06T09:31:24;2.72;;;0.82;;
32633;SDS011;19043;51.012;5.648;2022-07-06T09:33:54;2.17;;;0.75;;
32633;SDS011;19043;51.012;5.648;2022-07-06T09:41:41;1.65;;;0.70;;
32633;SDS011;19043;51.012;5.648;2022-07-06T09:44:06;3.08;;;0.68;;
32633;SDS011;19043;51.012;5.648;2022-07-06T09:46:41;1.58;;;0.52;;
32633;SDS011;19043;51.012;5.648;2022-07-06T09:49:08;3.53;;;0.90;;
32633;SDS011;19043;51.012;5.648;2022-07-06T09:51:37;4.95;;;0.70;;
32633;SDS011;19043;51.012;5.648;2022-07-06T09:54:06;3.38;;;0.80;;
32633;SDS011;19043;51.012;5.648;2022-07-06T09:56:40;1.20;;;0.60;;
32633;SDS011;19043;51.012;5.648;2022-07-06T09:59:09;2.65;;;0.98;;
32633;SDS011;19043;51.012;5.648;2022-07-06T10:01:36;2.35;;;0.90;;
32633;SDS011;19043;51.012;5.648;2022-07-06T10:04:02;3.13;;;0.82;;
32633;SDS011;19043;51.012;5.648;2022-07-06T10:06:28;3.97;;;1.00;;
32633;SDS011;19043;51.012;5.648;2022-07-06T10:08:54;3.03;;;0.82;;
32633;SDS011;19043;51.012;5.648;2022-07-06T10:11:20;1.90;;;0.70;;
32633;SDS011;19043;51.012;5.648;2022-07-06T10:13:46;2.63;;;0.70;;
32633;SDS011;19043;51.012;5.648;2022-07-06T10:16:13;3.42;;;1.13;;
32633;SDS011;19043;51.012;5.648;2022-07-06T10:18:39;2.20;;;0.90;;
32633;SDS011;19043;51.012;5.648;2022-07-06T10:21:05;3.40;;;0.88;;
32633;SDS011;19043;51.012;5.648;2022-07-06T10:23:31;2.40;;;0.98;;
32633;SDS011;19043;51.012;5.648;2022-07-06T10:25:57;2.85;;;0.90;;
32633;SDS011;19043;51.012;5.648;2022-07-06T10:28:22;1.98;;;0.93;;
32633;SDS011;19043;51.012;5.648;2022-07-06T10:30:48;2.80;;;0.80;;
32633;SDS011;19043;51.012;5.648;2022-07-06T10:33:14;3.03;;;0.98;;
32633;SDS011;19043;51.012;5.648;2022-07-06T10:35:40;2.80;;;1.10;;
32633;SDS011;19043;51.012;5.648;2022-07-06T10:38:06;2.28;;;1.00;;
32633;SDS011;19043;51.012;5.648;2022-07-06T10:40:34;2.03;;;0.93;;
32633;SDS011;19043;51.012;5.648;2022-07-06T10:43:18;9.57;;;0.98;;
32633;SDS011;19043;51.012;5.648;2022-07-06T10:50:37;4.75;;;0.90;;
32633;SDS011;19043;51.012;5.648;2022-07-06T10:53:11;5.65;;;1.10;;
32633;SDS011;19043;51.012;5.648;2022-07-06T10:55:42;1.58;;;0.60;;
32633;SDS011;19043;51.012;5.648;2022-07-06T10:58:11;2.60;;;1.00;;
32633;SDS011;19043;51.012;5.648;2022-07-06T11:00:55;2.97;;;0.98;;
32633;SDS011;19043;51.012;5.648;2022-07-06T11:03:30;1.83;;;0.98;;
32633;SDS011;19043;51.012;5.648;2022-07-06T11:06:07;2.63;;;0.90;;
32633;SDS011;19043;51.012;5.648;2022-07-06T11:11:12;4.20;;;1.08;;
32633;SDS011;19043;51.012;5.648;2022-07-06T11:13:58;2.47;;;0.90;;
32633;SDS011;19043;51.012;5.648;2022-07-06T11:16:31;1.77;;;0.88;;
32633;SDS011;19043;51.012;5.648;2022-07-06T11:21:35;2.65;;;1.10;;
32633;SDS011;19043;51.012;5.648;2022-07-06T11:24:05;2.38;;;1.00;;
32633;SDS011;19043;51.012;5.648;2022-07-06T11:26:32;2.42;;;0.90;;
32633;SDS011;19043;51.012;5.648;2022-07-06T11:29:01;2.28;;;0.85;;
32633;SDS011;19043;51.012;5.648;2022-07-06T11:31:27;4.85;;;1.02;;
32633;SDS011;19043;51.012;5.648;2022-07-06T11:33:53;3.53;;;1.20;;
32633;SDS011;19043;51.012;5.648;2022-07-06T11:36:20;2.67;;;0.80;;
32633;SDS011;19043;51.012;5.648;2022-07-06T11:38:47;3.15;;;1.00;;
32633;SDS011;19043;51.012;5.648;2022-07-06T11:41:13;3.15;;;1.10;;
32633;SDS011;19043;51.012;5.648;2022-07-06T11:43:40;2.63;;;1.02;;
32633;SDS011;19043;51.012;5.648;2022-07-06T11:49:04;3.83;;;1.15;;
32633;SDS011;19043;51.012;5.648;2022-07-06T11:51:32;3.38;;;1.00;;
32633;SDS011;19043;51.012;5.648;2022-07-06T11:54:00;2.10;;;0.95;;
32633;SDS011;19043;51.012;5.648;2022-07-06T11:56:28;2.55;;;0.90;;
32633;SDS011;19043;51.012;5.648;2022-07-06T11:58:55;2.00;;;0.93;;
32633;SDS011;19043;51.012;5.648;2022-07-06T12:01:21;6.32;;;1.40;;
32633;SDS011;19043;51.012;5.648;2022-07-06T12:03:48;2.95;;;0.90;;
32633;SDS011;19043;51.012;5.648;2022-07-06T12:06:21;3.00;;;1.27;;
32633;SDS011;19043;51.012;5.648;2022-07-06T12:08:48;1.83;;;0.75;;
32633;SDS011;19043;51.012;5.648;2022-07-06T12:11:19;2.30;;;0.93;;
32633;SDS011;19043;51.012;5.648;2022-07-06T12:13:45;2.00;;;0.82;;
32633;SDS011;19043;51.012;5.648;2022-07-06T12:16:11;2.92;;;1.08;;
32633;SDS011;19043;51.012;5.648;2022-07-06T12:18:40;8.77;;;1.45;;
32633;SDS011;19043;51.012;5.648;2022-07-06T12:21:07;14.30;;;1.27;;
32633;SDS011;19043;51.012;5.648;2022-07-06T12:23:40;2.75;;;1.02;;
32633;SDS011;19043;51.012;5.648;2022-07-06T12:26:10;2.28;;;1.05;;
32633;SDS011;19043;51.012;5.648;2022-07-06T12:28:36;2.83;;;1.15;;
32633;SDS011;19043;51.012;5.648;2022-07-06T12:31:02;7.25;;;1.17;;
32633;SDS011;19043;51.012;5.648;2022-07-06T12:33:27;3.15;;;1.15;;
32633;SDS011;19043;51.012;5.648;2022-07-06T12:35:53;5.47;;;1.42;;
32633;SDS011;19043;51.012;5.648;2022-07-06T12:38:22;2.83;;;1.10;;
32633;SDS011;19043;51.012;5.648;2022-07-06T12:40:48;3.25;;;0.93;;
32633;SDS011;19043;51.012;5.648;2022-07-06T12:43:18;2.50;;;1.05;;
32633;SDS011;19043;51.012;5.648;2022-07-06T12:45:59;2.45;;;0.98;;
32633;SDS011;19043;51.012;5.648;2022-07-06T12:48:25;2.45;;;1.00;;
32633;SDS011;19043;51.012;5.648;2022-07-06T12:50:50;4.13;;;1.17;;
32633;SDS011;19043;51.012;5.648;2022-07-06T12:53:25;2.17;;;1.15;;
32633;SDS011;19043;51.012;5.648;2022-07-06T12:56:07;3.20;;;1.20;;
32633;SDS011;19043;51.012;5.648;2022-07-06T12:58:34;3.67;;;1.10;;
32633;SDS011;19043;51.012;5.648;2022-07-06T13:00:59;2.55;;;0.90;;
32633;SDS011;19043;51.012;5.648;2022-07-06T13:03:24;5.05;;;1.45;;
32633;SDS011;19043;51.012;5.648;2022-07-06T13:05:50;2.70;;;1.25;;
32633;SDS011;19043;51.012;5.648;2022-07-06T13:08:15;2.97;;;1.38;;
32633;SDS011;19043;51.012;5.648;2022-07-06T13:10:41;3.40;;;1.63;;
32633;SDS011;19043;51.012;5.648;2022-07-06T13:13:08;2.90;;;1.25;;
32633;SDS011;19043;51.012;5.648;2022-07-06T13:15:33;3.60;;;1.10;;
32633;SDS011;19043;51.012;5.648;2022-07-06T13:17:59;4.72;;;1.40;;
32633;SDS011;19043;51.012;5.648;2022-07-06T13:20:24;6.15;;;1.27;;
32633;SDS011;19043;51.012;5.648;2022-07-06T13:22:49;2.90;;;0.95;;
32633;SDS011;19043;51.012;5.648;2022-07-06T13:25:15;3.08;;;1.13;;
32633;SDS011;19043;51.012;5.648;2022-07-06T13:27:41;4.22;;;1.48;;
32633;SDS011;19043;51.012;5.648;2022-07-06T13:30:07;3.22;;;1.35;;
32633;SDS011;19043;51.012;5.648;2022-07-06T13:32:32;3.90;;;1.20;;
32633;SDS011;19043;51.012;5.648;2022-07-06T13:34:59;2.50;;;1.20;;
32633;SDS011;19043;51.012;5.648;2022-07-06T13:37:24;3.15;;;1.27;;
32633;SDS011;19043;51.012;5.648;2022-07-06T13:39:49;2.90;;;1.05;;
32633;SDS011;19043;51.012;5.648;2022-07-06T13:42:15;3.28;;;1.20;;
32633;SDS011;19043;51.012;5.648;2022-07-06T13:44:40;3.08;;;0.98;;
32633;SDS011;19043;51.012;5.648;2022-07-06T13:47:06;4.15;;;1.25;;
32633;SDS011;19043;51.012;5.648;2022-07-06T13:49:31;2.60;;;1.15;;
32633;SDS011;19043;51.012;5.648;2022-07-06T13:51:57;5.60;;;1.40;;
32633;SDS011;19043;51.012;5.648;2022-07-06T13:54:28;3.78;;;1.48;;
32633;SDS011;19043;51.012;5.648;2022-07-06T13:56:53;4.22;;;1.55;;
32633;SDS011;19043;51.012;5.648;2022-07-06T13:59:19;3.33;;;1.42;;
32633;SDS011;19043;51.012;5.648;2022-07-06T14:01:44;6.13;;;1.40;;
32633;SDS011;19043;51.012;5.648;2022-07-06T14:04:09;3.60;;;1.27;;
32633;SDS011;19043;51.012;5.648;2022-07-06T14:06:34;3.05;;;1.30;;
32633;SDS011;19043;51.012;5.648;2022-07-06T14:09:01;2.35;;;0.93;;
32633;SDS011;19043;51.012;5.648;2022-07-06T14:11:26;4.57;;;1.48;;
32633;SDS011;19043;51.012;5.648;2022-07-06T14:13:52;3.58;;;1.15;;
32633;SDS011;19043;51.012;5.648;2022-07-06T14:16:17;3.97;;;1.58;;
32633;SDS011;19043;51.012;5.648;2022-07-06T14:18:42;4.22;;;1.30;;
32633;SDS011;19043;51.012;5.648;2022-07-06T14:21:08;4.45;;;1.55;;
32633;SDS011;19043;51.012;5.648;2022-07-06T14:23:34;3.80;;;1.50;;
32633;SDS011;19043;51.012;5.648;2022-07-06T14:25:59;2.47;;;1.27;;
32633;SDS011;19043;51.012;5.648;2022-07-06T14:28:25;4.50;;;1.48;;
32633;SDS011;19043;51.012;5.648;2022-07-06T14:30:50;4.40;;;1.50;;
32633;SDS011;19043;51.012;5.648;2022-07-06T14:33:16;3.28;;;1.60;;
32633;SDS011;19043;51.012;5.648;2022-07-06T14:35:42;4.40;;;1.80;;
32633;SDS011;19043;51.012;5.648;2022-07-06T14:38:09;3.55;;;1.50;;
32633;SDS011;19043;51.012;5.648;2022-07-06T14:40:35;5.15;;;1.85;;
32633;SDS011;19043;51.012;5.648;2022-07-06T14:43:01;3.60;;;1.65;;
32633;SDS011;19043;51.012;5.648;2022-07-06T14:45:26;5.13;;;1.95;;
32633;SDS011;19043;51.012;5.648;2022-07-06T14:47:52;8.15;;;2.15;;
32633;SDS011;19043;51.012;5.648;2022-07-06T14:50:18;6.07;;;1.92;;
32633;SDS011;19043;51.012;5.648;2022-07-06T14:52:43;6.45;;;1.83;;
32633;SDS011;19043;51.012;5.648;2022-07-06T14:55:09;5.30;;;1.80;;
32633;SDS011;19043;51.012;5.648;2022-07-06T14:57:34;8.32;;;1.85;;
32633;SDS011;19043;51.012;5.648;2022-07-06T15:00:00;4.30;;;1.60;;